Time,TemperatureF,DewpointF,PressureIn,WindDirection,WindDirectionDegrees,WindSpeedMPH,WindSpeedGustMPH,Humidity,HourlyPrecipIn,Conditions,Clouds,dailyrainin,SoftwareType,DateUTC
2013-07-07 00:00:00,49.5,45.5,30.04,NW,315,2.2,-999.0,86,-99.99,,,0.00,Acu-Link.com,2013-07-07 06:00:00,
2013-07-07 00:15:00,48.7,45.9,30.04,SSW,202,4.7,-999.0,90,-99.99,,,0.02,Acu-Link.com,2013-07-07 06:15:00,
2013-07-07 00:30:00,48.6,45.5,30.03,West,270,1.7,-999.0,89,-99.99,,,0.04,Acu-Link.com,2013-07-07 06:30:00,
2013-07-07 00:46:00,48.6,46.1,30.02,West,270,0.0,-999.0,91,-99.99,,,0.04,Acu-Link.com,2013-07-07 06:46:00,
2013-07-07 01:01:00,48.4,45.3,30.02,West,270,0.0,-999.0,89,-99.99,,,0.04,Acu-Link.com,2013-07-07 07:01:00,
2013-07-07 01:16:00,48.2,45.7,30.02,West,270,2.7,-999.0,91,-99.99,,,0.04,Acu-Link.com,2013-07-07 07:16:00,
2013-07-07 01:31:00,47.8,44.7,30.02,West,270,1.7,-999.0,89,-99.99,,,0.04,Acu-Link.com,2013-07-07 07:31:00,
2013-07-07 01:46:00,47.7,43.7,30.01,West,270,0.0,-999.0,86,-99.99,,,0.04,Acu-Link.com,2013-07-07 07:46:00,
2013-07-07 02:01:00,47.1,42.8,30.01,West,270,1.7,-999.0,85,-99.99,,,0.04,Acu-Link.com,2013-07-07 08:01:00,
2013-07-07 02:17:00,47.1,42.8,30.01,West,270,2.7,-999.0,85,-99.99,,,0.04,Acu-Link.com,2013-07-07 08:17:00,
2013-07-07 02:32:00,47.1,42.2,30.01,West,270,1.7,-999.0,83,-99.99,,,0.04,Acu-Link.com,2013-07-07 08:32:00,
2013-07-07 02:47:00,47.1,41.9,30.00,West,270,2.2,-999.0,82,-99.99,,,0.04,Acu-Link.com,2013-07-07 08:47:00,
2013-07-07 03:02:00,46.4,41.8,30.01,West,270,1.7,-999.0,84,-99.99,,,0.04,Acu-Link.com,2013-07-07 09:02:00,
2013-07-07 03:17:00,46.2,41.3,30.01,West,270,0.0,-999.0,83,-99.99,,,0.04,Acu-Link.com,2013-07-07 09:17:00,
2013-07-07 03:32:00,45.7,41.1,30.00,West,270,0.0,-999.0,84,-99.99,,,0.04,Acu-Link.com,2013-07-07 09:32:00,
2013-07-07 03:47:00,45.1,41.2,30.01,West,270,0.0,-999.0,86,-99.99,,,0.04,Acu-Link.com,2013-07-07 09:47:00,
2013-07-07 04:03:00,44.8,41.5,30.01,West,270,0.0,-999.0,88,-99.99,,,0.04,Acu-Link.com,2013-07-07 10:03:00,
2013-07-07 04:18:00,45.0,42.2,30.01,West,270,1.1,-999.0,90,-99.99,,,0.04,Acu-Link.com,2013-07-07 10:18:00,
2013-07-07 04:33:00,44.8,42.6,30.01,West,270,0.0,-999.0,92,-99.99,,,0.04,Acu-Link.com,2013-07-07 10:33:00,
2013-07-07 04:48:00,45.3,42.8,30.01,WSW,247,1.1,-999.0,91,-99.99,,,0.04,Acu-Link.com,2013-07-07 10:48:00,
2013-07-07 05:03:00,45.9,43.4,30.02,WSW,247,1.7,-999.0,91,-99.99,,,0.04,Acu-Link.com,2013-07-07 11:03:00,
2013-07-07 05:18:00,45.9,43.4,30.02,WSW,247,3.2,-999.0,91,-99.99,,,0.04,Acu-Link.com,2013-07-07 11:18:00,
2013-07-07 05:33:00,45.7,43.2,30.02,WSW,247,0.0,-999.0,91,-99.99,,,0.04,Acu-Link.com,2013-07-07 11:33:00,
2013-07-07 05:48:00,45.5,43.0,30.03,WSW,247,1.1,-999.0,91,-99.99,,,0.04,Acu-Link.com,2013-07-07 11:48:00,
2013-07-07 06:03:00,45.9,43.4,30.03,WSW,247,2.2,-999.0,91,-99.99,,,0.04,Acu-Link.com,2013-07-07 12:03:00,
2013-07-07 06:19:00,45.7,43.5,30.03,WSW,247,2.2,-999.0,92,-99.99,,,0.04,Acu-Link.com,2013-07-07 12:19:00,
2013-07-07 06:34:00,46.0,43.5,30.04,WSW,247,0.0,-999.0,91,-99.99,,,0.04,Acu-Link.com,2013-07-07 12:34:00,
2013-07-07 06:49:00,47.1,44.3,30.04,South,180,1.7,-999.0,90,-99.99,,,0.04,Acu-Link.com,2013-07-07 12:49:00,
2013-07-07 07:04:00,47.5,44.4,30.04,South,180,2.7,-999.0,89,-99.99,,,0.04,Acu-Link.com,2013-07-07 13:04:00,
2013-07-07 07:19:00,47.5,44.4,30.05,South,180,2.2,-999.0,89,-99.99,,,0.04,Acu-Link.com,2013-07-07 13:19:00,
2013-07-07 07:34:00,48.2,44.8,30.04,SSE,157,1.1,-999.0,88,-99.99,,,0.04,Acu-Link.com,2013-07-07 13:34:00,
2013-07-07 07:50:00,50.0,45.4,30.04,South,180,1.7,-999.0,84,-99.99,,,0.04,Acu-Link.com,2013-07-07 13:50:00,
2013-07-07 08:05:00,51.1,45.5,30.05,ENE,67,2.7,-999.0,81,-99.99,,,0.04,Acu-Link.com,2013-07-07 14:05:00,
2013-07-07 08:20:00,53.1,46.1,30.05,ENE,67,2.2,-999.0,77,-99.99,,,0.04,Acu-Link.com,2013-07-07 14:20:00,
2013-07-07 08:35:00,54.3,46.9,30.05,ENE,67,1.1,-999.0,76,-99.99,,,0.04,Acu-Link.com,2013-07-07 14:35:00,
2013-07-07 08:50:00,58.3,45.8,30.06,SE,135,3.7,-999.0,63,-99.99,,,0.04,Acu-Link.com,2013-07-07 14:50:00,
2013-07-07 09:05:00,60.8,46.4,30.06,WSW,247,6.3,-999.0,59,-99.99,,,0.04,Acu-Link.com,2013-07-07 15:05:00,
2013-07-07 09:20:00,61.3,45.9,30.06,ESE,112,3.2,-999.0,57,-99.99,,,0.04,Acu-Link.com,2013-07-07 15:20:00,
2013-07-07 09:35:00,60.3,46.4,30.06,ESE,112,3.2,-999.0,60,-99.99,,,0.04,Acu-Link.com,2013-07-07 15:35:00,
2013-07-07 09:50:00,63.5,47.0,30.06,SSE,157,1.7,-999.0,55,-99.99,,,0.04,Acu-Link.com,2013-07-07 15:50:00,
2013-07-07 10:06:00,62.4,44.5,30.06,ENE,67,1.7,-999.0,52,-99.99,,,0.04,Acu-Link.com,2013-07-07 16:06:00,
2013-07-07 10:21:00,64.4,45.9,30.07,East,90,2.2,-999.0,51,-99.99,,,0.04,Acu-Link.com,2013-07-07 16:21:00,
2013-07-07 10:37:00,63.9,44.9,30.07,ESE,112,4.2,-999.0,50,-99.99,,,0.04,Acu-Link.com,2013-07-07 16:37:00,
2013-07-07 10:52:00,67.3,48.0,30.08,SSW,202,3.7,-999.0,50,-99.99,,,0.04,Acu-Link.com,2013-07-07 16:52:00,
2013-07-07 11:07:00,68.4,46.8,30.08,ESE,112,5.8,-999.0,46,-99.99,,,0.04,Acu-Link.com,2013-07-07 17:07:00,
2013-07-07 11:22:00,68.0,46.4,30.08,ESE,112,3.2,-999.0,46,-99.99,,,0.04,Acu-Link.com,2013-07-07 17:22:00,
2013-07-07 11:37:00,70.5,47.5,30.08,ESE,112,3.2,-999.0,44,-99.99,,,0.04,Acu-Link.com,2013-07-07 17:37:00,
2013-07-07 11:52:00,66.9,43.1,30.08,WNW,292,4.7,-999.0,42,-99.99,,,0.04,Acu-Link.com,2013-07-07 17:52:00,
2013-07-07 12:07:00,69.3,43.9,30.08,South,180,3.7,-999.0,40,-99.99,,,0.04,Acu-Link.com,2013-07-07 18:07:00,
2013-07-07 12:22:00,69.4,45.3,30.08,ESE,112,2.7,-999.0,42,-99.99,,,0.04,Acu-Link.com,2013-07-07 18:22:00,
2013-07-07 12:38:00,68.2,43.6,30.08,WNW,292,3.7,-999.0,41,-99.99,,,0.04,Acu-Link.com,2013-07-07 18:38:00,
2013-07-07 12:53:00,69.1,43.1,30.09,West,270,2.2,-999.0,39,-99.99,,,0.04,Acu-Link.com,2013-07-07 18:53:00,
2013-07-07 13:08:00,71.4,43.8,30.08,ESE,112,3.7,-999.0,37,-99.99,,,0.04,Acu-Link.com,2013-07-07 19:08:00,
2013-07-07 13:23:00,72.3,44.6,30.09,East,90,3.7,-999.0,37,-99.99,,,0.04,Acu-Link.com,2013-07-07 19:23:00,
2013-07-07 13:38:00,67.3,40.8,30.09,SSW,202,2.7,-999.0,38,-99.99,,,0.04,Acu-Link.com,2013-07-07 19:38:00,
2013-07-07 13:53:00,69.6,42.2,30.09,WNW,292,5.3,-999.0,37,-99.99,,,0.04,Acu-Link.com,2013-07-07 19:53:00,
2013-07-07 14:09:00,66.2,40.5,30.08,NW,315,2.7,-999.0,39,-99.99,,,0.04,Acu-Link.com,2013-07-07 20:09:00,
2013-07-07 14:24:00,70.7,38.6,30.08,WNW,292,0.0,-999.0,31,-99.99,,,0.04,Acu-Link.com,2013-07-07 20:24:00,
2013-07-07 14:39:00,73.8,42.9,30.07,ESE,112,2.2,-999.0,33,-99.99,,,0.04,Acu-Link.com,2013-07-07 20:39:00,
2013-07-07 14:54:00,70.7,40.2,30.07,WSW,247,1.7,-999.0,33,-99.99,,,0.04,Acu-Link.com,2013-07-07 20:54:00,
2013-07-07 15:09:00,70.9,41.9,30.07,NW,315,2.7,-999.0,35,-99.99,,,0.04,Acu-Link.com,2013-07-07 21:09:00,
2013-07-07 15:24:00,68.0,40.0,30.07,West,270,0.0,-999.0,36,-99.99,,,0.04,Acu-Link.com,2013-07-07 21:24:00,
2013-07-07 15:39:00,72.7,40.3,30.06,WSW,247,2.2,-999.0,31,-99.99,,,0.04,Acu-Link.com,2013-07-07 21:39:00,
2013-07-07 15:54:00,70.9,37.9,30.06,ESE,112,1.7,-999.0,30,-99.99,,,0.04,Acu-Link.com,2013-07-07 21:54:00,
2013-07-07 16:09:00,73.9,38.7,30.05,ESE,112,3.7,-999.0,28,-99.99,,,0.04,Acu-Link.com,2013-07-07 22:09:00,
2013-07-07 16:25:00,72.1,40.6,30.05,ESE,112,2.7,-999.0,32,-99.99,,,0.04,Acu-Link.com,2013-07-07 22:25:00,
2013-07-07 16:40:00,71.6,40.2,30.04,ESE,112,3.2,-999.0,32,-99.99,,,0.04,Acu-Link.com,2013-07-07 22:40:00,
2013-07-07 16:55:00,73.6,36.6,30.04,ESE,112,5.8,-999.0,26,-99.99,,,0.04,Acu-Link.com,2013-07-07 22:55:00,
2013-07-07 17:10:00,74.8,37.6,30.04,ESE,112,2.7,-999.0,26,-99.99,,,0.04,Acu-Link.com,2013-07-07 23:10:00,
2013-07-07 17:25:00,71.4,33.7,30.03,ESE,112,2.2,-999.0,25,-99.99,,,0.04,Acu-Link.com,2013-07-07 23:25:00,
2013-07-07 17:40:00,73.4,36.4,30.02,ESE,112,4.2,-999.0,26,-99.99,,,0.04,Acu-Link.com,2013-07-07 23:40:00,
2013-07-07 17:55:00,75.6,35.2,30.02,ESE,112,1.7,-999.0,23,-99.99,,,0.04,Acu-Link.com,2013-07-07 23:55:00,
2013-07-07 18:10:00,75.7,34.2,30.02,ESE,112,1.7,-999.0,22,-99.99,,,0.04,Acu-Link.com,2013-07-08 00:10:00,
2013-07-07 18:25:00,73.0,34.1,30.02,ESE,112,0.0,-999.0,24,-99.99,,,0.04,Acu-Link.com,2013-07-08 00:25:00,
2013-07-07 18:40:00,73.0,34.1,30.02,ESE,112,1.7,-999.0,24,-99.99,,,0.04,Acu-Link.com,2013-07-08 00:40:00,
2013-07-07 18:56:00,72.1,33.3,30.02,ESE,112,1.7,-999.0,24,-99.99,,,0.04,Acu-Link.com,2013-07-08 00:56:00,
2013-07-07 19:11:00,70.5,34.0,30.02,ESE,112,0.0,-999.0,26,-99.99,,,0.04,Acu-Link.com,2013-07-08 01:11:00,
2013-07-07 19:26:00,68.4,34.9,30.02,ESE,112,0.0,-999.0,29,-99.99,,,0.04,Acu-Link.com,2013-07-08 01:26:00,
2013-07-07 19:41:00,66.6,35.8,30.02,ESE,112,1.1,-999.0,32,-99.99,,,0.04,Acu-Link.com,2013-07-08 01:41:00,
2013-07-07 19:56:00,64.6,38.4,30.03,ESE,112,0.0,-999.0,38,-99.99,,,0.04,Acu-Link.com,2013-07-08 01:56:00,
2013-07-07 20:11:00,62.8,34.7,30.03,ESE,112,0.0,-999.0,35,-99.99,,,0.04,Acu-Link.com,2013-07-08 02:11:00,
2013-07-07 20:26:00,61.2,35.4,30.03,ESE,112,0.0,-999.0,38,-99.99,,,0.04,Acu-Link.com,2013-07-08 02:26:00,
2013-07-07 20:41:00,59.4,36.3,30.03,ESE,112,0.0,-999.0,42,-99.99,,,0.04,Acu-Link.com,2013-07-08 02:41:00,
2013-07-07 20:56:00,58.8,36.4,30.04,ESE,112,0.0,-999.0,43,-99.99,,,0.04,Acu-Link.com,2013-07-08 02:56:00,
2013-07-07 21:12:00,58.3,37.1,30.04,ESE,112,0.0,-999.0,45,-99.99,,,0.04,Acu-Link.com,2013-07-08 03:12:00,
2013-07-07 21:29:00,57.4,35.1,30.05,ESE,112,0.0,-999.0,43,-99.99,,,0.04,Acu-Link.com,2013-07-08 03:29:00,
2013-07-07 21:44:00,57.0,34.7,30.05,ESE,112,0.0,-999.0,43,-99.99,,,0.04,Acu-Link.com,2013-07-08 03:44:00,
2013-07-07 21:59:00,56.3,34.1,30.07,ESE,112,1.1,-999.0,43,-99.99,,,0.04,Acu-Link.com,2013-07-08 03:59:00,
2013-07-07 22:14:00,55.6,34.6,30.07,ESE,112,0.0,-999.0,45,-99.99,,,0.04,Acu-Link.com,2013-07-08 04:14:00,
2013-07-07 22:29:00,55.0,34.6,30.07,ESE,112,0.0,-999.0,46,-99.99,,,0.04,Acu-Link.com,2013-07-08 04:29:00,
2013-07-07 22:44:00,53.8,34.0,30.07,ESE,112,0.0,-999.0,47,-99.99,,,0.04,Acu-Link.com,2013-07-08 04:44:00,
2013-07-07 22:59:00,53.2,34.0,30.07,ESE,112,0.0,-999.0,48,-99.99,,,0.04,Acu-Link.com,2013-07-08 04:59:00,
2013-07-07 23:15:00,52.3,33.2,30.07,ESE,112,0.0,-999.0,48,-99.99,,,0.04,Acu-Link.com,2013-07-08 05:15:00,
2013-07-07 23:30:00,51.8,33.8,30.06,ESE,112,0.0,-999.0,50,-99.99,,,0.04,Acu-Link.com,2013-07-08 05:30:00,
2013-07-07 23:45:00,51.4,33.9,30.07,ESE,112,2.2,-999.0,51,-99.99,,,0.04,Acu-Link.com,2013-07-08 05:45:00,